createdAt,value
2017-09-15T00:01:19.921Z,17.13
2017-09-15T00:03:51.341Z,13.53
2017-09-15T00:06:20.784Z,12.43
2017-09-15T00:08:57.298Z,14.80
2017-09-15T00:11:26.845Z,13.50
2017-09-15T00:13:58.083Z,15.90
2017-09-15T00:16:27.521Z,11.83
2017-09-15T00:18:57.124Z,22.23
2017-09-15T00:21:38.630Z,11.10
2017-09-15T00:24:15.844Z,20.50
2017-09-15T00:26:45.283Z,25.20
2017-09-15T00:29:14.732Z,19.53
2017-09-15T00:31:44.143Z,22.60
2017-09-15T00:34:13.937Z,18.03
2017-09-15T00:36:43.403Z,17.53
2017-09-15T00:39:12.862Z,13.80
2017-09-15T00:41:42.441Z,17.50
2017-09-15T00:44:11.901Z,23.90
2017-09-15T00:46:41.386Z,16.73
2017-09-15T00:49:10.867Z,21.07
2017-09-15T00:51:40.384Z,14.33
2017-09-15T00:54:10.007Z,20.73
2017-09-15T00:56:39.553Z,18.77
2017-09-15T00:59:09.007Z,17.40
2017-09-15T01:01:46.581Z,13.33
2017-09-15T01:04:16.068Z,17.93
2017-09-15T01:06:45.523Z,9.10
2017-09-15T01:09:15.000Z,14.83
2017-09-15T01:11:44.425Z,21.00
2017-09-15T01:14:13.999Z,13.70
2017-09-15T01:16:46.546Z,12.00
2017-09-15T01:19:16.009Z,17.33
2017-09-15T01:21:46.971Z,12.60
2017-09-15T01:24:16.408Z,10.30
2017-09-15T01:26:45.954Z,15.87
2017-09-15T01:29:15.638Z,14.80
2017-09-15T01:31:45.077Z,16.83
2017-09-15T01:34:14.483Z,11.30
2017-09-15T01:36:44.362Z,10.97
2017-09-15T01:39:13.952Z,12.30
2017-09-15T01:41:50.785Z,11.87
2017-09-15T01:44:21.548Z,16.40
2017-09-15T01:46:51.168Z,10.83
2017-09-15T01:49:20.547Z,11.53
2017-09-15T01:51:50.034Z,9.63
2017-09-15T01:54:19.793Z,19.10
2017-09-15T01:56:49.237Z,13.60
2017-09-15T01:59:24.829Z,34.93
2017-09-15T02:02:00.863Z,11.20
2017-09-15T02:04:35.061Z,15.53
2017-09-15T02:07:05.982Z,22.57
2017-09-15T02:09:35.550Z,18.20
2017-09-15T02:12:05.126Z,28.30
2017-09-15T02:14:35.578Z,15.83
2017-09-15T02:17:06.113Z,9.20
2017-09-15T02:19:35.689Z,9.93
2017-09-15T02:22:05.299Z,15.40
2017-09-15T02:24:34.947Z,20.73
2017-09-15T02:27:10.730Z,15.47
2017-09-15T02:29:40.943Z,14.23
2017-09-15T02:32:10.490Z,26.60
2017-09-15T02:34:41.421Z,9.40
2017-09-15T02:37:10.917Z,13.20
2017-09-15T02:39:46.803Z,16.50
2017-09-15T02:42:16.477Z,22.80
2017-09-15T02:44:46.075Z,58.53
2017-09-15T02:47:15.658Z,35.83
2017-09-15T02:49:45.215Z,40.93
2017-09-15T02:52:14.736Z,28.30
2017-09-15T02:54:44.373Z,25.03
2017-09-15T02:57:14.061Z,28.53
2017-09-15T02:59:57.157Z,17.43
2017-09-15T03:02:26.633Z,38.77
2017-09-15T03:04:56.423Z,28.33
2017-09-15T03:07:25.931Z,17.50
2017-09-15T03:09:55.380Z,27.43
2017-09-15T03:12:37.327Z,17.90
2017-09-15T03:15:20.936Z,48.43
2017-09-15T03:17:50.363Z,36.30
2017-09-15T03:20:24.309Z,23.27
2017-09-15T03:22:53.749Z,24.10
2017-09-15T03:25:23.222Z,33.17
2017-09-15T03:27:52.691Z,30.10
2017-09-15T03:30:22.193Z,35.97
2017-09-15T03:32:51.642Z,53.60
2017-09-15T03:35:21.090Z,15.60
2017-09-15T03:37:50.533Z,13.97
2017-09-15T03:40:19.956Z,12.70
2017-09-15T03:42:58.502Z,14.20
2017-09-15T03:45:28.077Z,91.33
2017-09-15T03:48:06.297Z,66.80
2017-09-15T03:50:35.873Z,50.30
2017-09-15T03:53:12.965Z,25.17
2017-09-15T03:55:42.492Z,19.10
2017-09-15T03:58:12.076Z,40.23
2017-09-15T04:00:41.518Z,22.67
2017-09-15T04:03:11.090Z,25.57
2017-09-15T04:05:40.556Z,13.67
2017-09-15T04:08:09.979Z,16.13
2017-09-15T04:10:39.581Z,21.63
2017-09-15T04:13:10.465Z,38.80
2017-09-15T04:15:39.912Z,51.87
2017-09-15T04:18:25.980Z,33.17
2017-09-15T04:20:55.586Z,49.70
2017-09-15T04:23:25.715Z,53.00
2017-09-15T04:25:55.163Z,15.27
2017-09-15T04:28:24.759Z,49.90
2017-09-15T04:30:54.514Z,14.93
2017-09-15T04:33:23.976Z,62.63
2017-09-15T04:35:53.404Z,26.83
2017-09-15T04:38:29.854Z,35.23
2017-09-15T04:40:59.409Z,64.70
2017-09-15T04:43:29.708Z,192.33
2017-09-15T04:45:59.134Z,158.77
2017-09-15T04:48:28.562Z,118.07
2017-09-15T04:50:57.975Z,75.37
2017-09-15T04:53:27.457Z,121.10
2017-09-15T04:55:56.926Z,115.13
2017-09-15T04:58:27.732Z,98.40
2017-09-15T05:00:57.259Z,87.23
2017-09-15T05:03:26.750Z,77.83
2017-09-15T05:05:56.212Z,97.77
2017-09-15T05:08:25.709Z,60.60
2017-09-15T05:10:55.229Z,22.70
2017-09-15T05:13:24.646Z,69.43
2017-09-15T05:15:54.064Z,70.33
2017-09-15T05:18:23.623Z,96.73
2017-09-15T05:20:53.074Z,106.03
2017-09-15T05:23:22.494Z,123.93
2017-09-15T05:25:51.925Z,30.13
2017-09-15T05:28:21.475Z,61.73
2017-09-15T05:30:51.033Z,114.30
2017-09-15T05:33:20.442Z,38.60
2017-09-15T05:35:50.556Z,69.37
2017-09-15T05:38:20.227Z,87.13
2017-09-15T05:40:49.803Z,52.40
2017-09-15T05:43:34.564Z,78.00
2017-09-15T05:46:04.091Z,27.73
2017-09-15T05:48:33.507Z,29.23
2017-09-15T05:51:03.122Z,29.00
2017-09-15T05:53:32.561Z,27.83
2017-09-15T05:56:15.131Z,43.90
2017-09-15T05:58:44.579Z,47.33
2017-09-15T06:01:14.026Z,36.87
2017-09-15T06:03:46.544Z,84.93
2017-09-15T06:06:16.045Z,46.30
2017-09-15T06:08:45.612Z,76.37
2017-09-15T06:11:15.057Z,33.87
2017-09-15T06:13:44.784Z,21.63
2017-09-15T06:16:14.272Z,35.63
2017-09-15T06:18:43.769Z,34.17
2017-09-15T06:21:13.252Z,37.83
2017-09-15T06:23:42.714Z,30.03
2017-09-15T06:26:12.288Z,29.07
2017-09-15T06:28:41.745Z,64.47
2017-09-15T06:31:11.278Z,45.63
2017-09-15T06:33:40.838Z,18.00
2017-09-15T06:36:16.768Z,95.17
2017-09-15T06:38:47.011Z,37.33
2017-09-15T06:41:16.509Z,37.07
2017-09-15T06:43:47.987Z,44.93
2017-09-15T06:46:22.454Z,48.83
2017-09-15T06:48:51.896Z,67.10
2017-09-15T06:51:35.311Z,27.50
2017-09-15T06:54:05.635Z,13.10
2017-09-15T06:56:50.251Z,10.73
2017-09-15T06:59:20.661Z,39.47
2017-09-15T07:01:50.349Z,31.70
2017-09-15T07:04:20.209Z,17.67
2017-09-15T07:06:50.238Z,20.60
2017-09-15T07:09:19.799Z,23.03
2017-09-15T07:12:06.536Z,17.27
2017-09-15T07:14:36.947Z,43.93
2017-09-15T07:17:12.667Z,43.87
2017-09-15T07:19:56.651Z,33.70
2017-09-15T07:22:26.134Z,22.13
2017-09-15T07:24:59.403Z,23.63
2017-09-15T07:27:28.999Z,11.37
2017-09-15T07:30:13.559Z,37.20
2017-09-15T07:32:44.150Z,19.50
2017-09-15T07:35:13.866Z,21.23
2017-09-15T07:37:57.449Z,15.93
2017-09-15T07:40:32.496Z,14.93
2017-09-15T07:43:02.773Z,18.70
2017-09-15T07:45:32.403Z,18.43
2017-09-15T07:48:01.909Z,35.73
2017-09-15T07:50:47.396Z,25.40
2017-09-15T07:53:17.019Z,17.17
2017-09-15T07:55:59.988Z,27.60
2017-09-15T07:58:44.986Z,21.20
2017-09-15T08:01:14.558Z,85.33
2017-09-15T08:03:44.105Z,25.27
2017-09-15T08:06:26.819Z,22.53
2017-09-15T08:09:03.716Z,11.70
2017-09-15T08:11:34.271Z,46.03
2017-09-15T08:14:04.030Z,18.87
2017-09-15T08:16:35.415Z,17.30
2017-09-15T08:19:04.961Z,8.20
2017-09-15T08:21:34.578Z,22.13
2017-09-15T08:24:04.229Z,11.23
2017-09-15T08:26:33.746Z,66.07
2017-09-15T08:29:03.189Z,23.00
2017-09-15T08:31:32.705Z,57.07
2017-09-15T08:34:02.313Z,68.87
2017-09-15T08:36:31.769Z,18.10
2017-09-15T08:39:01.237Z,35.60
2017-09-15T08:41:30.638Z,36.73
2017-09-15T08:44:00.349Z,37.93
2017-09-15T08:46:30.212Z,52.93
2017-09-15T08:48:59.800Z,46.20
2017-09-15T08:51:41.398Z,30.53
2017-09-15T08:54:10.910Z,23.37
2017-09-15T08:56:40.380Z,14.53
2017-09-15T08:59:15.971Z,23.30
2017-09-15T09:01:45.465Z,15.80
2017-09-15T09:04:14.970Z,14.77
2017-09-15T09:06:44.485Z,24.90
2017-09-15T09:09:13.899Z,26.23
2017-09-15T09:11:43.432Z,84.53
2017-09-15T09:14:12.876Z,36.57
2017-09-15T09:16:42.603Z,23.73
2017-09-15T09:19:12.261Z,11.73
2017-09-15T09:21:41.706Z,53.27
2017-09-15T09:24:18.161Z,13.43
2017-09-15T09:26:55.489Z,9.53
2017-09-15T09:29:25.036Z,18.70
2017-09-15T09:31:54.755Z,13.63
2017-09-15T09:34:24.437Z,11.60
2017-09-15T09:36:53.897Z,13.30
2017-09-15T09:39:25.886Z,7.13
2017-09-15T09:41:56.213Z,17.00
2017-09-15T09:44:25.805Z,26.60
2017-09-15T09:46:55.460Z,17.03
2017-09-15T09:49:40.906Z,23.13
2017-09-15T09:52:10.350Z,16.07
2017-09-15T09:54:39.905Z,8.13
2017-09-15T09:57:20.338Z,11.50
2017-09-15T09:59:49.840Z,5.00
2017-09-15T10:02:19.570Z,12.67
2017-09-15T10:04:50.080Z,8.97
2017-09-15T10:07:21.385Z,10.50
2017-09-15T10:09:56.905Z,8.60
2017-09-15T10:12:26.447Z,6.27
2017-09-15T10:14:56.122Z,16.30
2017-09-15T10:17:25.563Z,12.67
2017-09-15T10:19:55.045Z,18.60
2017-09-15T10:22:24.945Z,10.10
2017-09-15T10:24:54.393Z,10.83
2017-09-15T10:27:23.833Z,3.83
2017-09-15T10:29:53.271Z,2.30
2017-09-15T10:32:25.897Z,3.80
2017-09-15T10:34:55.441Z,6.47
2017-09-15T10:37:24.956Z,9.93
2017-09-15T10:39:54.427Z,5.33
2017-09-15T10:42:23.872Z,3.63
2017-09-15T10:44:53.586Z,3.30
2017-09-15T10:47:35.740Z,4.33
2017-09-15T10:50:05.182Z,2.17
2017-09-15T10:52:34.765Z,7.63
2017-09-15T10:55:04.327Z,7.00
2017-09-15T10:57:39.566Z,6.70
2017-09-15T11:00:12.936Z,6.03
2017-09-15T11:02:42.406Z,6.90
2017-09-15T11:05:11.971Z,8.23
2017-09-15T11:07:41.426Z,4.70
2017-09-15T11:10:10.901Z,12.43
2017-09-15T11:12:40.596Z,27.23
2017-09-15T11:15:10.060Z,33.83
2017-09-15T11:17:39.824Z,43.03
2017-09-15T11:20:22.072Z,28.27
2017-09-15T11:22:51.966Z,23.67
2017-09-15T11:25:28.733Z,11.23
2017-09-15T11:27:58.186Z,9.00
2017-09-15T11:30:34.992Z,10.63
2017-09-15T11:33:18.071Z,12.50
2017-09-15T11:35:47.651Z,11.57
2017-09-15T11:38:17.146Z,10.20
2017-09-15T11:40:46.881Z,2.73
2017-09-15T11:43:25.700Z,9.53
2017-09-15T11:45:55.159Z,18.20
2017-09-15T11:48:24.629Z,9.43
2017-09-15T11:50:55.654Z,9.80
2017-09-15T11:53:25.283Z,7.17
2017-09-15T11:55:55.124Z,6.80
2017-09-15T11:58:24.637Z,8.00
2017-09-15T12:00:54.073Z,5.83
2017-09-15T12:03:36.276Z,7.23
2017-09-15T12:06:05.830Z,8.33
2017-09-15T12:08:35.247Z,2.90
2017-09-15T12:11:04.650Z,2.90
2017-09-15T12:13:34.061Z,6.43
2017-09-15T12:16:03.559Z,6.50
2017-09-15T12:18:32.988Z,21.77
2017-09-15T12:21:09.946Z,5.93
2017-09-15T12:23:39.508Z,4.90
2017-09-15T12:26:08.915Z,4.53
2017-09-15T12:28:38.359Z,3.03
2017-09-15T12:31:07.773Z,6.83
2017-09-15T12:33:37.385Z,3.30
2017-09-15T12:36:06.901Z,3.60
2017-09-15T12:38:49.621Z,6.53
2017-09-15T12:41:19.159Z,8.40
2017-09-15T12:44:02.024Z,8.53
2017-09-15T12:46:31.775Z,4.93
2017-09-15T12:49:01.277Z,3.60
2017-09-15T12:51:30.708Z,8.80
2017-09-15T12:54:00.133Z,8.67
2017-09-15T12:56:43.016Z,7.83
2017-09-15T12:59:12.458Z,8.50
2017-09-15T13:01:42.001Z,7.20
2017-09-15T13:04:17.104Z,6.83
2017-09-15T13:06:46.545Z,6.27
2017-09-15T13:09:16.132Z,9.63
2017-09-15T13:11:45.774Z,8.73
2017-09-15T13:14:15.222Z,6.57
2017-09-15T13:16:57.909Z,13.90
2017-09-15T13:19:27.372Z,3.63
2017-09-15T13:21:56.946Z,4.30
2017-09-15T13:24:26.596Z,7.13
2017-09-15T13:26:56.273Z,6.33
2017-09-15T13:29:26.381Z,35.00
2017-09-15T13:31:55.838Z,38.27
2017-09-15T13:34:25.256Z,34.80
2017-09-15T13:37:08.915Z,45.73
2017-09-15T13:39:38.347Z,5.10
2017-09-15T13:42:07.885Z,21.67
2017-09-15T13:44:37.411Z,45.23
2017-09-15T13:47:06.840Z,97.97
2017-09-15T13:49:38.208Z,17.70
2017-09-15T13:52:07.843Z,33.23
2017-09-15T13:54:37.682Z,27.00
2017-09-15T13:57:07.133Z,6.20
2017-09-15T13:59:44.345Z,17.83
2017-09-15T14:02:14.029Z,16.30
2017-09-15T14:04:49.663Z,10.27
2017-09-15T14:07:19.101Z,14.63
2017-09-15T14:10:03.850Z,56.17
2017-09-15T14:12:33.442Z,30.13
2017-09-15T14:15:02.901Z,48.17
2017-09-15T14:17:32.342Z,5.83
2017-09-15T14:20:13.849Z,14.47
2017-09-15T14:22:43.280Z,23.47
2017-09-15T14:25:12.694Z,14.97
2017-09-15T14:27:42.316Z,5.33
2017-09-15T14:30:11.790Z,22.53
2017-09-15T14:32:47.321Z,14.40
2017-09-15T14:35:31.259Z,18.40
2017-09-15T14:38:00.887Z,15.23
2017-09-15T14:40:32.197Z,1.80
2017-09-15T14:43:01.698Z,29.57
2017-09-15T14:45:38.402Z,8.90
2017-09-15T14:48:07.876Z,18.93
2017-09-15T14:50:37.345Z,32.13
2017-09-15T14:53:20.218Z,15.47
2017-09-15T14:55:58.165Z,9.80
2017-09-15T14:58:27.583Z,6.93
2017-09-15T15:00:57.034Z,8.60
2017-09-15T15:03:33.117Z,2.20
2017-09-15T15:06:02.863Z,7.80
2017-09-15T15:08:39.982Z,7.20
2017-09-15T15:11:09.415Z,17.60
2017-09-15T15:13:38.884Z,9.60
2017-09-15T15:16:08.356Z,4.77
2017-09-15T15:18:38.012Z,4.00
2017-09-15T15:21:07.567Z,12.63
2017-09-15T15:23:37.028Z,3.97
2017-09-15T15:26:06.483Z,5.03
2017-09-15T15:28:36.030Z,4.60
2017-09-15T15:31:05.458Z,5.73
2017-09-15T15:33:34.956Z,27.03
2017-09-15T15:36:04.376Z,5.57
2017-09-15T15:38:34.957Z,7.23
2017-09-15T15:41:04.638Z,6.40
2017-09-15T15:43:42.601Z,9.20
2017-09-15T15:46:12.412Z,12.23
2017-09-15T15:48:41.879Z,19.87
2017-09-15T15:51:11.599Z,13.73
2017-09-15T15:53:41.032Z,9.60
2017-09-15T15:56:23.480Z,6.00
2017-09-15T15:58:52.972Z,7.77
2017-09-15T16:01:22.762Z,19.40
2017-09-15T16:03:56.315Z,8.63
2017-09-15T16:06:38.354Z,17.53
2017-09-15T16:09:08.039Z,33.73
2017-09-15T16:11:37.895Z,7.13
2017-09-15T16:14:07.618Z,9.40
2017-09-15T16:16:37.246Z,11.57
2017-09-15T16:19:07.576Z,9.77
2017-09-15T16:21:38.230Z,9.40
2017-09-15T16:24:07.894Z,12.13
2017-09-15T16:26:37.596Z,5.57
2017-09-15T16:29:07.169Z,4.17
2017-09-15T16:31:36.935Z,10.03
2017-09-15T16:34:06.362Z,7.30
2017-09-15T16:36:51.015Z,9.40
2017-09-15T16:39:34.076Z,8.37
2017-09-15T16:42:25.760Z,15.10
2017-09-15T16:45:01.219Z,25.97
2017-09-15T16:47:36.571Z,9.77
2017-09-15T16:50:06.054Z,7.40
2017-09-15T16:52:35.572Z,7.07
2017-09-15T16:55:14.378Z,8.30
2017-09-15T16:57:44.073Z,8.03
2017-09-15T17:00:13.710Z,5.97
2017-09-15T17:02:43.228Z,5.73
2017-09-15T17:05:12.693Z,6.50
2017-09-15T17:07:50.398Z,7.57
2017-09-15T17:10:20.830Z,18.63
2017-09-15T17:12:50.368Z,12.30
2017-09-15T17:15:19.776Z,7.00
2017-09-15T17:18:03.419Z,14.23
2017-09-15T17:20:33.089Z,8.87
2017-09-15T17:23:18.394Z,17.80
2017-09-15T17:25:48.073Z,8.07
2017-09-15T17:28:17.471Z,13.73
2017-09-15T17:30:46.905Z,9.40
2017-09-15T17:33:16.355Z,15.60
2017-09-15T17:35:46.027Z,9.47
2017-09-15T17:38:15.654Z,10.30
2017-09-15T17:40:45.131Z,8.33
2017-09-15T17:43:14.541Z,8.80
2017-09-15T17:45:44.870Z,8.33
2017-09-15T17:48:27.316Z,15.10
2017-09-15T17:50:56.784Z,12.77
2017-09-15T17:53:27.564Z,10.17
2017-09-15T17:55:57.091Z,7.50
2017-09-15T17:58:26.543Z,17.83
2017-09-15T18:00:56.007Z,18.17
2017-09-15T18:03:25.438Z,5.90
2017-09-15T18:05:55.188Z,10.03
2017-09-15T18:08:24.718Z,20.03
2017-09-15T18:11:01.585Z,14.23
2017-09-15T18:13:30.997Z,16.70
2017-09-15T18:16:08.589Z,22.30
2017-09-15T18:18:38.047Z,27.10
2017-09-15T18:21:14.125Z,29.87
2017-09-15T18:23:55.798Z,9.40
2017-09-15T18:26:25.857Z,6.47
2017-09-15T18:29:10.263Z,5.70
2017-09-15T18:31:39.917Z,5.33
2017-09-15T18:34:09.319Z,11.37
2017-09-15T18:36:38.951Z,6.07
2017-09-15T18:39:08.381Z,15.17
2017-09-15T18:41:38.781Z,7.83
2017-09-15T18:44:08.576Z,4.60
2017-09-15T18:46:37.982Z,7.37
2017-09-15T18:49:07.784Z,8.37
2017-09-15T18:51:37.321Z,6.70
2017-09-15T18:54:06.880Z,4.93
2017-09-15T18:56:36.538Z,3.93
2017-09-15T18:59:05.998Z,4.40
2017-09-15T19:01:35.534Z,3.43
2017-09-15T19:04:12.078Z,4.00
2017-09-15T19:06:47.765Z,8.63
2017-09-15T19:09:17.205Z,3.90
2017-09-15T19:11:46.686Z,4.77
2017-09-15T19:14:22.871Z,4.50
2017-09-15T19:16:52.458Z,2.83
2017-09-15T19:19:22.526Z,10.10
2017-09-15T19:21:52.474Z,3.53
2017-09-15T19:24:22.028Z,7.30
2017-09-15T19:26:51.475Z,7.40
2017-09-15T19:29:21.125Z,4.27
2017-09-15T19:31:50.586Z,10.33
2017-09-15T19:34:20.170Z,5.70
2017-09-15T19:36:49.996Z,4.00
2017-09-15T19:39:19.472Z,4.23
2017-09-15T19:41:49.042Z,4.20
2017-09-15T19:44:18.622Z,2.60
2017-09-15T19:46:48.043Z,4.03
2017-09-15T19:49:31.187Z,8.63
2017-09-15T19:52:13.928Z,2.93
2017-09-15T19:54:43.428Z,2.40
2017-09-15T19:57:20.972Z,2.00
2017-09-15T19:59:50.443Z,5.53
2017-09-15T20:02:19.994Z,4.00
2017-09-15T20:04:49.676Z,1.83
2017-09-15T20:07:19.148Z,3.47
2017-09-15T20:10:01.779Z,2.40
2017-09-15T20:12:38.576Z,1.60
2017-09-15T20:15:08.586Z,2.37
2017-09-15T20:17:38.070Z,1.60
2017-09-15T20:20:14.347Z,2.23
2017-09-15T20:22:44.861Z,2.13
2017-09-15T20:25:14.380Z,1.67
2017-09-15T20:27:51.817Z,2.13
2017-09-15T20:30:21.409Z,1.50
2017-09-15T20:32:50.958Z,2.90
2017-09-15T20:35:20.606Z,1.67
2017-09-15T20:37:50.483Z,5.83
2017-09-15T20:40:19.953Z,1.53
2017-09-15T20:42:49.489Z,1.40
2017-09-15T20:45:25.293Z,3.63
2017-09-15T20:48:09.014Z,1.60
2017-09-15T20:50:38.979Z,1.50
2017-09-15T20:53:09.186Z,1.50
2017-09-15T20:55:38.744Z,4.00
2017-09-15T20:58:09.063Z,3.23
2017-09-15T21:00:39.633Z,3.30
2017-09-15T21:03:09.125Z,2.40
2017-09-15T21:05:38.946Z,3.30
2017-09-15T21:08:09.801Z,2.30
2017-09-15T21:10:39.357Z,2.00
2017-09-15T21:13:09.228Z,1.77
2017-09-15T21:15:53.120Z,3.47
2017-09-15T21:18:22.648Z,2.27
2017-09-15T21:20:52.530Z,1.70
2017-09-15T21:23:34.385Z,1.60
2017-09-15T21:26:03.920Z,1.97
2017-09-15T21:28:34.232Z,1.97
2017-09-15T21:31:03.884Z,2.03
2017-09-15T21:33:34.432Z,2.10
2017-09-15T21:36:04.267Z,3.63
2017-09-15T21:38:33.818Z,3.57
2017-09-15T21:41:04.414Z,2.90
2017-09-15T21:43:34.076Z,2.60
2017-09-15T21:46:03.907Z,3.00
2017-09-15T21:48:42.922Z,2.13
2017-09-15T21:51:12.819Z,2.70
2017-09-15T21:53:46.607Z,3.00
2017-09-15T21:56:16.167Z,1.63
2017-09-15T21:58:45.611Z,2.90
2017-09-15T22:01:15.763Z,2.90
2017-09-15T22:03:51.002Z,2.10
2017-09-15T22:06:20.701Z,4.23
2017-09-15T22:08:50.411Z,2.33
2017-09-15T22:11:34.786Z,1.67
2017-09-15T22:14:04.347Z,3.23
2017-09-15T22:16:33.940Z,1.53
2017-09-15T22:19:03.907Z,13.80
2017-09-15T22:21:40.851Z,2.40
2017-09-15T22:24:10.355Z,3.10
2017-09-15T22:26:39.855Z,4.00
2017-09-15T22:29:09.265Z,2.00
2017-09-15T22:31:38.718Z,3.00
2017-09-15T22:34:08.125Z,2.60
2017-09-15T22:36:37.611Z,3.30
2017-09-15T22:39:07.047Z,2.30
2017-09-15T22:41:49.759Z,1.20
2017-09-15T22:44:19.214Z,2.80
2017-09-15T22:46:48.766Z,1.67
2017-09-15T22:49:18.451Z,4.07
2017-09-15T22:51:55.726Z,2.63
2017-09-15T22:54:31.217Z,12.87
2017-09-15T22:57:00.672Z,2.63
2017-09-15T22:59:30.287Z,6.40
2017-09-15T23:01:59.717Z,2.43
2017-09-15T23:04:29.176Z,4.30
2017-09-15T23:06:58.583Z,9.83
2017-09-15T23:09:28.674Z,3.80
2017-09-15T23:12:05.902Z,6.67
2017-09-15T23:14:35.520Z,2.73
2017-09-15T23:17:11.486Z,4.20
2017-09-15T23:19:42.337Z,3.10
2017-09-15T23:22:11.968Z,8.83
2017-09-15T23:24:41.433Z,3.70
2017-09-15T23:27:10.993Z,4.30
2017-09-15T23:29:40.494Z,2.60
2017-09-15T23:32:10.027Z,5.17
2017-09-15T23:34:40.826Z,5.57
2017-09-15T23:37:10.295Z,2.20
2017-09-15T23:39:39.769Z,5.30
2017-09-15T23:42:09.256Z,5.27
2017-09-15T23:44:38.825Z,3.40
2017-09-15T23:47:21.458Z,3.00
2017-09-15T23:49:50.898Z,3.13
2017-09-15T23:52:20.318Z,4.30
2017-09-15T23:54:49.738Z,2.87
2017-09-15T23:57:26.847Z,5.10
2017-09-15T23:59:56.363Z,11.80
